Overview Statistics Trail Chart Weather Telemetry Raw packets
 

This is the latest recevied weather packets stored in our database for station/object KC1TEM-13. If no packets are shown the sender has not sent any weather packets the latest 10 day(s).

<< 8 9 10 11 12 13 14 >>
Time Temp. Humidity Pressure Rain* Wind** Luminosity Snow
1788561669 23.33° C 70% 1009.2 hPa 0 mm - 11 W/m² -
1788561369 23.33° C 69% 1009.2 hPa 0 mm - 10 W/m² -
1788561064 23.89° C 69% 1009.2 hPa 0 mm - 13 W/m² -
1788560760 23.89° C 66% 1009.2 hPa 0 mm - 17 W/m² -
1788560456 23.89° C 68% 1009.2 hPa 0 mm - 28 W/m² -
1788560155 23.89° C 64% 1009.1 hPa 0 mm - 35 W/m² -
1788559850 23.89° C 64% 1009.2 hPa 0 mm - 36 W/m² -
1788559550 23.89° C 64% 1009.2 hPa 0 mm - 45 W/m² -
1788559246 23.89° C 63% 1009.2 hPa 0 mm - 46 W/m² -
1788558946 24.44° C 63% 1008.9 hPa 0 mm - 61 W/m² -
1788558642 25° C 62% 1008.9 hPa 0 mm - 71 W/m² -
1788558337 25.56° C 58% 1008.8 hPa 0 mm - 76 W/m² -
1788558032 25.56° C 60% 1008.8 hPa 0 mm - 75 W/m² -
1788557730 25.56° C 56% 1009 hPa 0 mm - 70 W/m² -
1788557427 25.56° C 54% 1009.2 hPa 0 mm - 84 W/m² -
1788557127 25.56° C 58% 1008.8 hPa 0 mm - 72 W/m² -
1788556822 25.56° C 53% 1009 hPa 0 mm - 56 W/m² -
1788556521 25.56° C 57% 1009 hPa 0 mm - 56 W/m² -
1788556217 26.11° C 62% 1009 hPa 0 mm - 93 W/m² -
1788555916 26.11° C 60% 1009 hPa 0 mm - 201 W/m² -
1788555613 25.56° C 60% 1009 hPa 0 mm - 214 W/m² -
1788555308 26.11° C 63% 1008.9 hPa 0 mm - 72 W/m² -
1788555004 26.67° C 58% 1009 hPa 0 mm - 81 W/m² -
1788554700 26.67° C 59% 1008.8 hPa 0 mm - 295 W/m² -
1788554396 26.67° C 52% 1009 hPa 0 mm - 276 W/m² -

* Rain latest hour (hover to see other rain measurements)
** Current wind speed in m/s (hover to see current wind gust speed)